Airfield :







YOU CAN JOIN US ON...

 
LOGIN :

Register | Disclaimer

   EN    FR    IT 

 









Legend :    VFR   Marginal VFR   IFR   Intensive IFR   Very Intensive IFR
Visi :
Ceiling :
>= 8 km
>= 3000ft
5 to 8 km
1000 to 3000 ft
1500m to 5 km
500 to 1000 ft
800 to 1500m
200 to 500 ft
< 800m
< 200 ft
Symbols :   Thunderstorms  Fog  Heavy snow  Heavy precipitations  Wind > 20 kt






- Airport Elevation : 20 ft
- IATA code : BOS


KBOS - General Edward Lawrence Logan International

CURRENT METAR :
  • 121854Z 30007KT 10SM FEW025 SCT130 BKN250 00/M12 A3068 RMK AO2 SLP389 T00001117

EXPIRED METARs :
  • 121754Z 29010G15KT 10SM FEW025 FEW130 BKN250 00/M12 A3069 RMK AO2 SLP392 T00001122 10000 21033 56009
  • 121654Z 29008KT 10SM FEW025 FEW130 BKN250 M01/M12 A3070 RMK AO2 SLP395 T10061122
  • 121554Z 29007KT 10SM FEW025 FEW130 BKN250 M01/M13 A3070 RMK AO2 SLP395 T10061128

TAF KBOS
Valid from the 12 at 18:00 until the 14 at 00:00 UTC


121736Z 1218/1324 28010KT P6SM FEW250
FM122100 25005KT P6SM FEW250
FM122300 22004KT P6SM FEW200
FM130200 19005KT P6SM SCT200
FM130900 16007KT P6SM BKN200
FM131700 15010KT P6SM -RA OVC025



MET'MAP, your aeronautical weather chart ! - Copyright ORBIFLY December 2007 - Disclaimer

ORBIFLY MET'MAP TEAM :

Programming & Development : Alexandra Zaïnal
Concept & original design : Baudouin d'Aumeries
Assistance for programming : Marc-Olivier Méhu
Technical & hardware support : Manuel Goepfert

Contact : metmap@orbifly.com




SOURCES & CREDITS :

   NOAA